Time;durP1;ratioP1;P1;durP2;ratioP2;P2;SDS_P1;SDS_P2;PMS_P1;PMS_P2;Temp;Humidity;BMP_temperature;BMP_pressure;BME280_temperature;BME280_humidity;BME280_pressure;Samples;Min_cycle;Max_cycle;Signal;HPM_P1;HPM_P2
2022/11/19 00:00:06;;;;;;;;;8.20;7.00;;;;;11.42;62.79;100389.34;2071692;28;47097;-61
2022/11/19 00:01:09;;;;;;;;;7.00;7.00;;;;;11.44;63.09;100395.53;2069629;28;46787;-62
2022/11/19 00:02:10;;;;;;;;;9.60;8.20;;;;;11.45;63.06;100391.06;2068533;28;46881;-60
2022/11/19 00:03:14;;;;;;;;;9.00;9.00;;;;;11.46;62.88;100396.34;2076831;28;47131;-60
2022/11/19 00:04:15;;;;;;;;;8.20;7.60;;;;;11.46;62.75;100390.16;2075648;28;46331;-61
2022/11/19 00:05:15;;;;;;;;;7.75;7.25;;;;;11.46;63.00;100390.16;2077316;28;46490;-62
2022/11/19 00:06:18;;;;;;;;;8.25;8.00;;;;;11.47;63.09;100395.41;2075777;28;46160;-61
2022/11/19 00:07:18;;;;;;;;;8.00;8.00;;;;;11.47;62.92;100390.09;2080944;28;46381;-62
2022/11/19 00:08:19;;;;;;;;;12.00;9.75;;;;;11.47;63.05;100400.72;2077123;28;46188;-61
2022/11/19 00:09:20;;;;;;;;;7.50;7.25;;;;;11.47;63.04;100389.22;2071390;28;46642;-61
2022/11/19 00:10:20;;;;;;;;;10.25;9.25;;;;;11.48;62.85;100394.50;2070522;28;46559;-60
2022/11/19 00:12:54;;;;;;;;;7.40;7.40;;;;;11.49;63.23;100398.03;2072316;28;46290;-62
2022/11/19 00:13:54;;;;;;;;;7.60;7.60;;;;;11.50;63.05;100397.09;2102070;27;47069;-59
2022/11/19 00:14:55;;;;;;;;;7.75;7.00;;;;;11.50;63.06;100395.31;2103387;28;45822;-61
2022/11/19 00:15:55;;;;;;;;;6.50;6.50;;;;;11.51;63.10;100388.22;2078621;28;47125;-61
2022/11/19 00:16:55;;;;;;;;;7.25;6.75;;;;;11.50;63.04;100395.31;2076098;28;46626;-62
2022/11/19 00:17:57;;;;;;;;;6.25;5.00;;;;;11.52;63.01;100400.56;2071826;28;46968;-61
2022/11/19 00:18:57;;;;;;;;;8.20;8.00;;;;;11.52;62.95;100395.25;2074088;28;46543;-60
2022/11/19 00:19:57;;;;;;;;;7.00;7.00;;;;;11.52;62.95;100397.91;2072564;28;46775;-60
2022/11/19 00:21:07;;;;;;;;;9.00;8.00;;;;;11.54;63.17;100397.88;2077673;28;46119;-61
2022/11/19 00:22:07;;;;;;;;;5.25;5.25;;;;;11.53;62.86;100393.47;2076853;28;46854;-60
2022/11/19 00:23:07;;;;;;;;;7.00;7.00;;;;;11.54;63.09;100388.09;2073403;28;46794;-61
2022/11/19 00:24:09;;;;;;;;;6.50;5.50;;;;;11.55;63.05;100391.63;2073335;28;46651;-59
2022/11/19 00:25:10;;;;;;;;;9.60;7.00;;;;;11.54;63.11;100398.75;2079662;28;47118;-61
2022/11/19 00:26:13;;;;;;;;;7.60;7.60;;;;;11.53;63.10;100398.78;2072110;28;46323;-60
2022/11/19 00:27:13;;;;;;;;;8.20;6.00;;;;;11.55;62.95;100388.97;2077161;28;46303;-61
2022/11/19 00:28:13;;;;;;;;;5.50;5.00;;;;;11.53;62.99;100383.72;2077437;28;46715;-61
2022/11/19 00:29:14;;;;;;;;;7.25;6.00;;;;;11.53;62.97;100382.84;2073983;28;46041;-60
2022/11/19 00:30:15;;;;;;;;;9.75;9.75;;;;;11.53;63.03;100380.19;2084497;28;47233;-59
2022/11/19 00:31:17;;;;;;;;;5.00;5.00;;;;;11.53;62.80;100382.84;2085036;28;46544;-60
2022/11/19 00:32:17;;;;;;;;;7.75;6.75;;;;;11.51;62.88;100390.88;2072219;28;46265;-59
2022/11/19 00:33:17;;;;;;;;;7.50;6.50;;;;;11.51;63.13;100390.88;2072968;28;46266;-61
2022/11/19 00:34:18;;;;;;;;;5.00;5.00;;;;;11.51;63.11;100382.91;2072461;28;46651;-59
2022/11/19 00:35:18;;;;;;;;;5.75;5.75;;;;;11.52;63.13;100392.59;2072671;28;46395;-61
2022/11/19 00:36:19;;;;;;;;;6.67;6.67;;;;;11.53;63.03;100385.50;2072300;28;45516;-62
2022/11/19 00:37:20;;;;;;;;;7.00;6.60;;;;;11.54;62.93;100389.91;2079558;28;46486;-60
2022/11/19 00:38:20;;;;;;;;;6.50;5.50;;;;;11.53;62.90;100381.06;2075229;28;46217;-59
2022/11/19 00:39:20;;;;;;;;;7.25;7.00;;;;;11.54;63.09;100382.78;2077127;28;46467;-60
2022/11/19 00:40:21;;;;;;;;;4.00;4.00;;;;;11.54;63.00;100396.09;2075299;28;46838;-59
2022/11/19 00:41:21;;;;;;;;;6.00;6.00;;;;;11.53;62.89;100394.34;2078360;28;50449;-61
2022/11/19 00:42:22;;;;;;;;;7.25;5.50;;;;;11.53;62.94;100386.38;2074571;28;46817;-59
2022/11/19 00:44:42;;;;;;;;;7.80;7.80;;;;;11.51;63.09;100382.91;2079584;28;47128;-60
2022/11/19 00:45:43;;;;;;;;;5.75;5.75;;;;;11.51;63.12;100385.56;2080314;28;46430;-61
2022/11/19 00:46:43;;;;;;;;;6.00;6.00;;;;;11.49;63.13;100382.94;2076538;28;45657;-60
2022/11/19 00:47:43;;;;;;;;;4.67;4.67;;;;;11.48;63.05;100397.16;2071811;28;46186;-60
2022/11/19 00:48:45;;;;;;;;;6.50;6.50;;;;;11.49;63.10;100392.72;2073132;28;46502;-59
2022/11/19 00:49:45;;;;;;;;;9.40;6.40;;;;;11.46;62.97;100391.03;2073495;28;45862;-61
2022/11/19 00:50:45;;;;;;;;;7.50;7.50;;;;;11.48;63.12;100396.28;2073531;28;46198;-61
2022/11/19 00:51:46;;;;;;;;;11.00;11.00;;;;;11.47;63.22;100395.41;2076748;28;46172;-60
2022/11/19 00:52:46;;;;;;;;;11.50;11.50;;;;;11.48;63.06;100396.28;2075973;28;44940;-61
2022/11/19 00:53:47;;;;;;;;;8.00;7.25;;;;;11.48;63.25;100399.81;2077009;28;45529;-61
2022/11/19 00:54:47;;;;;;;;;7.25;7.25;;;;;11.48;63.36;100406.91;2078401;28;46706;-60
2022/11/19 00:55:48;;;;;;;;;9.00;6.00;;;;;11.47;63.24;100402.53;2079171;28;46610;-60
2022/11/19 00:56:48;;;;;;;;;6.00;6.00;;;;;11.46;63.26;100396.34;2077190;28;45528;-59
2022/11/19 00:57:48;;;;;;;;;8.75;8.75;;;;;11.47;63.03;100397.19;2072729;28;46244;-61
2022/11/19 00:58:49;;;;;;;;;6.75;6.75;;;;;11.47;63.09;100386.56;2062185;28;46999;-62
2022/11/19 00:59:49;;;;;;;;;5.00;5.00;;;;;11.46;63.34;100385.72;2081116;28;45728;-61
2022/11/19 01:00:50;;;;;;;;;5.75;5.75;;;;;11.48;63.07;100388.31;2091539;28;46270;-62
2022/11/19 01:01:50;;;;;;;;;6.33;5.00;;;;;11.46;63.09;100385.72;2074042;28;46249;-61
2022/11/19 01:02:51;;;;;;;;;6.75;6.00;;;;;11.46;63.07;100377.72;2076805;28;46490;-61
2022/11/19 01:03:51;;;;;;;;;6.50;5.75;;;;;11.45;63.12;100383.09;2078545;28;45964;-58
2022/11/19 01:04:52;;;;;;;;;3.50;3.50;;;;;11.43;63.31;100384.91;2076003;28;46276;-60
2022/11/19 01:05:52;;;;;;;;;5.75;5.00;;;;;11.41;63.15;100389.41;2073399;28;46769;-61
2022/11/19 01:06:52;;;;;;;;;6.00;5.00;;;;;11.39;63.34;100392.09;2072840;28;46634;-60
2022/11/19 01:07:53;;;;;;;;;6.00;6.00;;;;;11.38;63.18;100389.50;2083946;28;46268;-60
2022/11/19 01:08:54;;;;;;;;;6.50;6.50;;;;;11.38;63.23;100398.34;2074885;28;46682;-60
2022/11/19 01:09:54;;;;;;;;;5.67;5.67;;;;;11.36;63.07;100397.53;2071907;28;45990;-61
2022/11/19 01:10:54;;;;;;;;;7.00;5.00;;;;;11.36;63.27;100399.31;2074836;28;46579;-58
2022/11/19 01:11:55;;;;;;;;;5.00;4.00;;;;;11.35;63.37;100400.22;2072461;28;46541;-59
2022/11/19 01:14:14;;;;;;;;;5.60;5.60;;;;;11.33;63.24;100394.97;2074977;28;48641;-60
2022/11/19 01:15:15;;;;;;;;;6.25;5.75;;;;;11.31;63.35;100396.81;2075360;28;46412;-59
2022/11/19 01:16:19;;;;;;;;;6.00;6.00;;;;;11.29;63.52;100395.94;2075648;28;46291;-59
2022/11/19 01:17:19;;;;;;;;;3.00;3.00;;;;;11.28;63.37;100396.00;2072896;28;46521;-60
2022/11/19 01:18:20;;;;;;;;;6.00;6.00;;;;;11.26;63.33;100390.75;2072867;28;46302;-60
2022/11/19 01:19:20;;;;;;;;;5.00;5.00;;;;;11.26;63.56;100398.72;2072297;28;46211;-60
2022/11/19 01:20:20;;;;;;;;;6.00;4.00;;;;;11.25;63.47;100401.41;2074639;28;46424;-60
2022/11/19 01:21:24;;;;;;;;;8.25;7.00;;;;;11.25;63.54;100401.41;2072155;28;46755;-62
2022/11/19 01:22:24;;;;;;;;;6.40;6.40;;;;;11.24;63.90;100402.31;2072821;28;47017;-61
2022/11/19 01:23:24;;;;;;;;;4.75;4.75;;;;;11.24;63.75;100402.31;2075878;28;45621;-60
2022/11/19 01:24:25;;;;;;;;;7.75;7.75;;;;;11.24;63.55;100402.31;2073965;28;47151;-60
2022/11/19 01:25:25;;;;;;;;;6.50;6.50;;;;;11.24;63.87;100404.97;2077082;28;44919;-61
2022/11/19 01:26:26;;;;;;;;;3.75;3.75;;;;;11.24;63.75;100399.69;2074435;28;45576;-60
2022/11/19 01:27:27;;;;;;;;;3.20;3.20;;;;;11.23;63.65;100401.47;2072173;28;45421;-60
2022/11/19 01:28:28;;;;;;;;;9.00;6.75;;;;;11.24;63.85;100402.31;2074166;28;46269;-63
2022/11/19 01:29:28;;;;;;;;;5.60;4.00;;;;;11.23;63.69;100405.91;2073696;28;46727;-61
2022/11/19 01:30:29;;;;;;;;;4.67;4.67;;;;;11.22;63.77;100405.03;2084362;28;46258;-60
2022/11/19 01:31:29;;;;;;;;;5.25;5.25;;;;;11.20;63.50;100407.75;2083932;28;46107;-60
2022/11/19 01:32:30;;;;;;;;;7.75;6.50;;;;;11.19;63.90;100411.31;2075179;28;46591;-61
2022/11/19 01:33:30;;;;;;;;;6.00;6.00;;;;;11.17;63.40;100410.47;2074157;28;45460;-60
2022/11/19 01:34:30;;;;;;;;;8.00;7.25;;;;;11.17;63.89;100414.91;2072274;28;46410;-59
2022/11/19 01:35:31;;;;;;;;;6.25;6.00;;;;;11.17;63.86;100415.78;2071708;28;46436;-60
2022/11/19 01:36:31;;;;;;;;;8.50;8.50;;;;;11.17;63.86;100417.56;2072550;28;46502;-60
2022/11/19 01:37:31;;;;;;;;;6.00;6.00;;;;;11.18;64.16;100419.31;2075586;28;46425;-59
2022/11/19 01:38:33;;;;;;;;;8.25;6.00;;;;;11.19;64.18;100427.25;2074316;28;45724;-59
2022/11/19 01:39:33;;;;;;;;;4.00;4.00;;;;;11.19;64.18;100429.91;2078504;28;47117;-59
2022/11/19 01:40:42;;;;;;;;;6.75;6.75;;;;;11.21;64.11;100421.88;2073813;28;45521;-60
2022/11/19 01:41:42;;;;;;;;;5.20;5.20;;;;;11.23;63.94;100425.38;2078353;28;46482;-60
2022/11/19 01:42:48;;;;;;;;;5.75;5.00;;;;;11.25;64.02;100425.31;2071375;28;46338;-61
2022/11/19 01:43:52;;;;;;;;;5.60;5.60;;;;;11.26;63.93;100432.38;2077159;28;45339;-60
2022/11/19 01:45:01;;;;;;;;;6.20;5.20;;;;;11.26;64.19;100419.97;2078945;28;45298;-59
2022/11/19 01:46:01;;;;;;;;;6.60;5.40;;;;;11.27;63.91;100427.00;2076240;28;46908;-59
2022/11/19 01:47:01;;;;;;;;;9.00;7.75;;;;;11.26;63.88;100419.97;2073696;28;45861;-60
2022/11/19 01:48:28;;;;;;;;;5.00;5.00;;;;;11.27;63.95;100420.81;2071660;28;46912;-60
2022/11/19 01:49:28;;;;;;;;;8.60;7.60;;;;;11.26;63.82;100419.97;2075204;28;45814;-60
2022/11/19 01:50:32;;;;;;;;;6.25;6.00;;;;;11.27;64.10;100426.13;2074534;28;45462;-60
2022/11/19 01:51:52;;;;;;;;;3.00;1.80;;;;;11.27;63.97;100421.69;2076172;28;46418;-60
2022/11/19 01:52:53;;;;;;;;;4.50;4.50;;;;;11.26;64.18;100421.75;2094580;28;46359;-59
2022/11/19 01:53:58;;;;;;;;;4.25;4.25;;;;;11.25;63.83;100423.53;2093018;28;46833;-59
2022/11/19 01:55:00;;;;;;;;;4.80;4.60;;;;;11.25;63.65;100422.66;2076824;28;46698;-60
2022/11/19 01:56:04;;;;;;;;;5.00;5.00;;;;;11.23;63.89;100424.50;2083536;28;46992;-59
2022/11/19 01:57:08;;;;;;;;;5.00;5.00;;;;;11.23;63.82;100421.84;2080362;28;47165;-60
2022/11/19 01:58:13;;;;;;;;;6.20;5.20;;;;;11.23;63.99;100428.03;2074094;28;47280;-60
2022/11/19 01:59:17;;;;;;;;;5.00;5.00;;;;;11.23;63.96;100425.38;2072240;28;46613;-60
2022/11/19 02:00:17;;;;;;;;;4.00;4.00;;;;;11.23;63.94;100433.34;2071279;28;46592;-61
2022/11/19 02:01:18;;;;;;;;;6.00;5.00;;;;;11.23;63.97;100429.81;2077511;28;46322;-61
2022/11/19 02:02:21;;;;;;;;;5.00;5.00;;;;;11.23;63.87;100422.72;2073087;28;46557;-60
2022/11/19 02:03:22;;;;;;;;;4.50;4.50;;;;;11.24;63.87;100428.88;2079369;28;47007;-60
2022/11/19 02:04:23;;;;;;;;;4.00;4.00;;;;;11.23;63.98;100425.38;2076543;28;45256;-61
2022/11/19 02:05:24;;;;;;;;;6.00;6.00;;;;;11.22;63.80;100422.75;2071786;28;46475;-60
2022/11/19 02:06:25;;;;;;;;;5.60;5.40;;;;;11.21;64.07;100427.19;2072287;28;47025;-60
2022/11/19 02:07:28;;;;;;;;;5.25;5.25;;;;;11.21;63.99;100427.19;2080385;28;46715;-59
2022/11/19 02:08:41;;;;;;;;;6.60;5.60;;;;;11.19;64.00;100429.03;2075247;28;46668;-58
2022/11/19 02:09:43;;;;;;;;;6.20;5.40;;;;;11.19;64.02;100421.94;2071979;28;46737;-60
2022/11/19 02:10:58;;;;;;;;;4.00;4.00;;;;;11.19;64.05;100424.59;2077721;28;46480;-60
2022/11/19 02:12:14;;;;;;;;;6.40;5.20;;;;;11.19;63.94;100427.25;2076425;28;45790;-60
2022/11/19 02:13:29;;;;;;;;;4.00;3.60;;;;;11.19;63.81;100427.25;2074858;28;46103;-61
2022/11/19 02:14:45;;;;;;;;;3.40;2.60;;;;;11.18;63.83;100432.59;2073086;28;46485;-61
2022/11/19 02:16:03;;;;;;;;;7.00;5.80;;;;;11.15;64.04;100433.53;2077451;28;46788;-59
2022/11/19 02:17:07;;;;;;;;;5.80;5.20;;;;;11.14;64.05;100428.28;2072666;28;47183;-61
2022/11/19 02:18:10;;;;;;;;;5.60;4.60;;;;;11.13;63.90;100437.16;2071502;28;46798;-59
2022/11/19 02:19:41;;;;;;;;;4.60;4.60;;;;;11.11;63.86;100426.59;2075362;28;46302;-59
2022/11/19 02:20:54;;;;;;;;;4.75;4.75;;;;;11.10;63.92;100430.16;2074758;28;46580;-61
2022/11/19 02:22:00;;;;;;;;;5.80;5.80;;;;;11.10;63.97;100431.94;2074087;28;46602;-61
2022/11/19 02:23:14;;;;;;;;;3.40;3.40;;;;;11.10;63.99;100430.16;2072679;28;48811;-61
2022/11/19 02:24:24;;;;;;;;;5.75;5.00;;;;;11.11;63.99;100426.59;2077958;28;46106;-61
2022/11/19 02:25:53;;;;;;;;;3.40;3.40;;;;;11.12;64.27;100425.66;2073454;28;46302;-59
2022/11/19 02:27:16;;;;;;;;;1.75;1.75;;;;;11.12;64.17;100422.16;2077129;28;46867;-61
2022/11/19 02:28:34;;;;;;;;;4.75;4.00;;;;;11.12;64.16;100427.47;2072150;28;47046;-61
2022/11/19 02:30:01;;;;;;;;;4.00;3.80;;;;;11.11;63.81;100431.91;2073270;28;46673;-60
2022/11/19 02:31:06;;;;;;;;;5.80;5.00;;;;;11.08;64.00;100432.00;2076804;28;46386;-60
2022/11/19 02:32:13;;;;;;;;;4.00;4.00;;;;;11.06;64.02;100425.00;2076599;28;46148;-60
2022/11/19 02:33:55;;;;;;;;;4.00;3.00;;;;;11.07;64.14;100421.41;2074179;28;46561;-60
2022/11/19 02:35:08;;;;;;;;;4.75;4.25;;;;;11.08;63.75;100433.78;2066509;28;46488;-58
2022/11/19 02:36:24;;;;;;;;;6.00;6.00;;;;;11.07;63.96;100435.56;2069034;28;46345;-61
2022/11/19 02:37:31;;;;;;;;;3.25;3.00;;;;;11.08;64.06;100432.00;2070417;28;47069;-59
2022/11/19 02:38:34;;;;;;;;;3.75;3.75;;;;;11.06;64.22;100431.16;2068450;28;46398;-60
2022/11/19 02:39:42;;;;;;;;;5.50;5.00;;;;;11.05;64.07;100429.44;2070674;28;47151;-60
2022/11/19 02:40:51;;;;;;;;;4.75;4.75;;;;;11.03;64.02;100428.56;2067886;28;46779;-60
2022/11/19 02:42:02;;;;;;;;;6.00;6.00;;;;;11.02;64.32;100433.94;2068446;28;46612;-61
2022/11/19 02:43:18;;;;;;;;;4.50;4.25;;;;;11.00;64.32;100423.34;2061238;28;45919;-61
2022/11/19 02:46:02;;;;;;;;;5.75;4.00;;;;;11.04;64.34;100424.13;2069180;28;46526;-60
2022/11/19 02:47:07;;;;;;;;;5.00;5.00;;;;;11.03;64.39;100425.06;2065655;28;46694;-61
2022/11/19 02:48:16;;;;;;;;;7.25;5.75;;;;;11.04;64.32;100429.44;2067063;28;46373;-60
2022/11/19 02:49:20;;;;;;;;;5.50;5.50;;;;;11.04;64.22;100430.31;2067578;28;46613;-60
2022/11/19 02:50:38;;;;;;;;;9.25;6.75;;;;;11.02;64.16;100424.19;2068841;28;46793;-59
2022/11/19 02:51:38;;;;;;;;;5.25;4.50;;;;;11.02;64.20;100428.63;2070314;28;46322;-60
2022/11/19 02:52:42;;;;;;;;;4.33;4.33;;;;;11.00;64.43;100433.97;2068470;28;45554;-59
2022/11/19 02:53:46;;;;;;;;;4.50;4.25;;;;;10.99;64.51;100424.28;2068861;28;46467;-59
2022/11/19 02:54:46;;;;;;;;;5.25;5.25;;;;;10.98;64.46;100426.97;2069318;28;46145;-58
2022/11/19 02:57:09;;;;;;;;;4.00;3.00;;;;;10.99;64.37;100432.25;2070339;28;46900;-59
2022/11/19 03:05:20;;;;;;;;;6.00;4.25;;;;;11.03;64.46;100425.06;2061585;28;46226;-59
2022/11/19 03:06:26;;;;;;;;;4.00;4.00;;;;;11.04;64.59;100421.47;2060345;28;46323;-59
2022/11/19 03:07:27;;;;;;;;;7.00;7.00;;;;;11.05;64.28;100429.44;2066281;28;46701;-60
2022/11/19 03:08:27;;;;;;;;;5.33;5.33;;;;;11.05;64.30;100424.13;2060557;28;46242;-59
2022/11/19 03:09:31;;;;;;;;;7.00;5.00;;;;;11.06;64.29;100431.16;2039904;28;46901;-59
2022/11/19 03:10:54;;;;;;;;;7.75;7.75;;;;;11.05;64.50;100429.44;2035663;28;45757;-60
2022/11/19 03:12:15;;;;;;;;;5.00;5.00;;;;;11.08;64.38;100428.47;2051702;28;46425;-59
2022/11/19 03:16:42;;;;;;;;;7.25;6.25;;;;;11.07;64.31;100434.69;2050318;28;46569;-59
2022/11/19 03:17:59;;;;;;;;;7.25;6.25;;;;;11.06;64.67;100438.28;2045938;28;46647;-60
2022/11/19 03:19:09;;;;;;;;;6.75;5.25;;;;;11.06;64.36;100441.78;2051908;28;45055;-60
2022/11/19 03:20:26;;;;;;;;;6.00;5.25;;;;;11.06;64.49;100433.81;2053070;28;45141;-61
2022/11/19 03:21:32;;;;;;;;;4.25;4.25;;;;;11.06;64.45;100436.47;2051620;28;46726;-61
2022/11/19 03:22:40;;;;;;;;;4.25;4.25;;;;;11.06;64.60;100431.16;2052492;28;46937;-60
2022/11/19 03:23:50;;;;;;;;;8.25;6.75;;;;;11.07;64.86;100438.22;2053829;28;46626;-60
2022/11/19 03:24:59;;;;;;;;;5.00;4.00;;;;;11.09;64.46;100439.03;2053297;28;46735;-61
2022/11/19 03:26:06;;;;;;;;;6.75;6.75;;;;;11.09;64.37;100439.03;2047174;28;46957;-61
2022/11/19 03:27:24;;;;;;;;;7.25;6.25;;;;;11.10;64.54;100443.44;2053677;28;46444;-60
2022/11/19 03:28:29;;;;;;;;;6.75;6.75;;;;;11.11;64.58;100439.00;2050601;28;45728;-60
2022/11/19 03:29:33;;;;;;;;;6.75;5.75;;;;;11.12;64.67;100444.25;2046171;28;47011;-60
2022/11/19 03:30:35;;;;;;;;;6.40;5.40;;;;;11.13;64.73;100442.47;2051724;28;46833;-59
2022/11/19 03:31:39;;;;;;;;;9.75;9.75;;;;;11.15;64.47;100444.16;2053985;28;46900;-60
2022/11/19 03:32:46;;;;;;;;;5.25;5.25;;;;;11.16;64.67;100443.25;2052951;28;46392;-59
2022/11/19 03:33:51;;;;;;;;;6.25;6.25;;;;;11.18;64.63;100443.22;2049905;28;46919;-60
2022/11/19 03:34:57;;;;;;;;;5.25;4.25;;;;;11.19;64.54;100447.63;2050165;28;46624;-60
2022/11/19 03:36:04;;;;;;;;;5.75;5.00;;;;;11.20;64.42;100444.94;2046766;28;47475;-61
2022/11/19 03:37:07;;;;;;;;;6.50;6.00;;;;;11.22;64.47;100446.66;2054282;28;45645;-61
2022/11/19 03:38:13;;;;;;;;;5.00;5.00;;;;;11.23;64.49;100435.13;2090242;28;46634;-60
2022/11/19 03:39:19;;;;;;;;;7.00;5.25;;;;;11.22;64.54;100439.56;2091578;28;45708;-61
2022/11/19 03:40:22;;;;;;;;;5.00;5.00;;;;;11.20;64.34;100444.94;2073480;28;46359;-59
2022/11/19 03:41:25;;;;;;;;;6.75;6.75;;;;;11.19;64.62;100444.97;2076641;28;46530;-61
2022/11/19 03:42:26;;;;;;;;;5.25;5.25;;;;;11.18;64.28;100438.78;2075640;28;45346;-60
2022/11/19 03:43:32;;;;;;;;;7.50;5.25;;;;;11.17;64.52;100449.44;2073051;28;46438;-61
2022/11/19 03:44:40;;;;;;;;;6.00;6.00;;;;;11.15;64.67;100446.81;2071931;28;45947;-61
2022/11/19 03:45:44;;;;;;;;;5.25;4.25;;;;;11.15;64.69;100451.25;2078393;28;47071;-59
2022/11/19 03:46:48;;;;;;;;;5.25;4.00;;;;;11.14;64.52;100449.53;2074479;28;45863;-63
2022/11/19 03:47:50;;;;;;;;;8.00;4.75;;;;;11.12;64.86;100448.69;2084623;28;46968;-60
2022/11/19 03:48:53;;;;;;;;;7.75;6.75;;;;;11.12;64.99;100452.22;2090814;28;46631;-60
2022/11/19 03:50:01;;;;;;;;;5.75;5.75;;;;;11.14;64.73;100454.84;2087678;28;47101;-60
2022/11/19 03:51:12;;;;;;;;;5.50;5.50;;;;;11.12;64.67;100449.56;2089698;28;46754;-60
2022/11/19 03:52:14;;;;;;;;;5.75;5.75;;;;;11.13;64.87;100448.66;2085707;28;46696;-60
2022/11/19 03:53:17;;;;;;;;;8.00;7.50;;;;;11.12;64.95;100448.69;2091327;28;46144;-60
2022/11/19 03:54:17;;;;;;;;;8.50;7.75;;;;;11.10;65.13;100451.41;2088674;28;46992;-60
2022/11/19 03:55:22;;;;;;;;;5.00;5.00;;;;;11.11;64.82;100447.84;2093703;28;46434;-60
2022/11/19 03:56:26;;;;;;;;;5.25;5.00;;;;;11.11;64.76;100458.44;2089027;28;46029;-59
2022/11/19 03:57:26;;;;;;;;;6.00;6.00;;;;;11.10;64.68;100446.09;2094732;28;47115;-61
2022/11/19 03:58:28;;;;;;;;;6.67;6.00;;;;;11.11;65.05;100452.28;2090684;28;46916;-60
2022/11/19 03:59:28;;;;;;;;;4.25;4.25;;;;;11.10;64.85;100451.41;2086618;28;46407;-61
2022/11/19 04:00:29;;;;;;;;;9.75;7.00;;;;;11.09;64.95;100452.31;2087147;28;45619;-60
2022/11/19 04:01:32;;;;;;;;;6.67;6.67;;;;;11.10;64.88;100453.19;2082656;28;46858;-61
2022/11/19 04:02:32;;;;;;;;;7.50;6.25;;;;;11.09;64.86;100451.44;2084145;28;46785;-61
2022/11/19 04:03:33;;;;;;;;;5.67;5.67;;;;;11.09;64.75;100452.31;2086997;28;46496;-59
2022/11/19 04:04:36;;;;;;;;;6.67;6.00;;;;;11.09;65.00;100452.31;2089263;28;46746;-59
2022/11/19 04:05:36;;;;;;;;;5.75;5.75;;;;;11.11;64.75;100457.59;2088056;28;45904;-59
2022/11/19 04:06:37;;;;;;;;;6.33;6.33;;;;;11.10;64.90;100454.06;2087988;28;46263;-60
2022/11/19 04:07:37;;;;;;;;;8.75;8.25;;;;;11.09;64.69;100454.09;2090235;28;46318;-60
2022/11/19 04:08:37;;;;;;;;;6.00;6.00;;;;;11.09;64.87;100462.06;2087201;28;46167;-59
2022/11/19 04:09:39;;;;;;;;;5.67;5.67;;;;;11.06;64.83;100457.72;2087333;28;46378;-61
2022/11/19 04:10:39;;;;;;;;;6.00;6.00;;;;;11.06;64.86;100464.81;2086981;28;46668;-59
2022/11/19 04:11:39;;;;;;;;;5.00;4.00;;;;;11.05;64.76;100463.94;2083981;28;48239;-59
2022/11/19 04:12:40;;;;;;;;;6.25;6.25;;;;;11.05;64.96;100458.63;2084366;28;46800;-58
2022/11/19 04:13:40;;;;;;;;;6.00;4.67;;;;;11.06;65.27;100456.84;2086949;28;45387;-61
2022/11/19 04:14:40;;;;;;;;;5.00;5.00;;;;;11.07;65.13;100459.47;2089967;28;45740;-61
2022/11/19 04:15:41;;;;;;;;;5.00;5.00;;;;;11.09;64.79;100460.28;2094421;28;46525;-58
2022/11/19 04:16:41;;;;;;;;;4.67;3.00;;;;;11.10;65.03;100458.50;2086013;28;45108;-59
2022/11/19 04:17:42;;;;;;;;;7.75;7.75;;;;;11.11;64.70;100460.25;2085941;28;46555;-59
2022/11/19 04:18:42;;;;;;;;;7.00;7.00;;;;;11.11;65.01;100462.91;2088738;28;45801;-60
2022/11/19 04:19:42;;;;;;;;;7.25;7.25;;;;;11.10;65.02;100451.41;2093540;28;46561;-59
2022/11/19 04:20:44;;;;;;;;;5.33;5.00;;;;;11.11;65.00;100457.59;2089003;28;46862;-59
2022/11/19 04:21:45;;;;;;;;;6.25;6.25;;;;;11.10;64.77;100459.38;2085018;28;46349;-60
2022/11/19 04:22:45;;;;;;;;;7.00;7.00;;;;;11.12;65.13;100461.97;2082291;28;46861;-60
2022/11/19 04:23:45;;;;;;;;;5.67;5.67;;;;;11.13;65.05;100467.25;2079079;28;46538;-58
2022/11/19 04:24:46;;;;;;;;;6.00;5.67;;;;;11.13;64.96;100458.41;2082387;28;46218;-61
2022/11/19 04:25:46;;;;;;;;;5.00;5.00;;;;;11.15;64.98;100461.88;2081477;28;45621;-61
2022/11/19 04:26:47;;;;;;;;;6.25;5.25;;;;;11.15;65.02;100467.19;2073024;28;46178;-60
2022/11/19 04:27:47;;;;;;;;;6.67;6.67;;;;;11.16;65.05;100460.97;2077739;28;46895;-59
2022/11/19 04:28:48;;;;;;;;;6.50;5.25;;;;;11.15;64.89;100470.72;2076606;28;46552;-61
2022/11/19 04:29:48;;;;;;;;;7.00;5.33;;;;;11.15;64.98;100465.41;2072196;28;46011;-61
2022/11/19 04:30:48;;;;;;;;;5.33;5.33;;;;;11.15;64.97;100470.72;2102213;28;46285;-61
2022/11/19 04:31:49;;;;;;;;;9.00;7.33;;;;;11.15;64.96;100472.50;2092948;28;46648;-59
2022/11/19 04:32:49;;;;;;;;;5.67;4.67;;;;;11.14;64.91;100466.31;2075359;28;46853;-59
2022/11/19 04:33:50;;;;;;;;;6.00;5.00;;;;;11.15;64.89;100473.38;2076504;28;46552;-60
2022/11/19 04:34:50;;;;;;;;;5.50;5.50;;;;;11.14;64.91;100465.47;2073730;28;46754;-60
2022/11/19 04:35:50;;;;;;;;;6.00;6.00;;;;;11.15;65.03;100475.16;2070551;28;46801;-59
2022/11/19 04:36:51;;;;;;;;;7.00;5.00;;;;;11.16;65.21;100475.13;2073525;28;47071;-60
2022/11/19 04:37:51;;;;;;;;;6.75;6.25;;;;;11.18;65.02;100481.28;2071514;28;46554;-61
2022/11/19 04:38:51;;;;;;;;;4.75;4.75;;;;;11.16;65.34;100480.44;2076558;28;46384;-60
2022/11/19 04:39:52;;;;;;;;;5.50;5.50;;;;;11.18;64.99;100477.75;2077237;28;46336;-56
2022/11/19 04:40:52;;;;;;;;;5.75;5.25;;;;;11.20;65.20;100483.91;2077128;28;45636;-59
2022/11/19 04:41:52;;;;;;;;;5.00;4.50;;;;;11.21;64.92;100485.63;2074767;28;46556;-60
2022/11/19 04:42:53;;;;;;;;;6.25;6.25;;;;;11.21;64.95;100488.28;2073356;28;46317;-60
2022/11/19 04:43:53;;;;;;;;;5.00;5.00;;;;;11.23;64.93;100494.44;2076653;28;46555;-61
2022/11/19 04:44:53;;;;;;;;;5.00;5.00;;;;;11.25;65.03;100491.72;2075742;28;46612;-60
2022/11/19 04:45:53;;;;;;;;;5.67;5.67;;;;;11.25;64.96;100483.75;2077014;28;46646;-60
2022/11/19 04:46:54;;;;;;;;;4.00;4.00;;;;;11.26;64.87;100498.78;2074205;28;45980;-59
2022/11/19 04:47:54;;;;;;;;;6.00;6.00;;;;;11.27;64.93;100490.75;2070456;28;46092;-60
2022/11/19 04:48:54;;;;;;;;;6.50;5.75;;;;;11.29;65.09;100496.91;2080079;28;46294;-60
2022/11/19 04:49:55;;;;;;;;;6.00;6.00;;;;;11.29;65.07;100490.72;2087296;28;46084;-60
2022/11/19 04:50:55;;;;;;;;;7.00;7.00;;;;;11.28;65.19;100487.19;2073450;28;46166;-61
2022/11/19 04:51:55;;;;;;;;;7.25;6.50;;;;;11.29;64.95;100485.41;2075455;28;47057;-60
2022/11/19 04:52:57;;;;;;;;;7.00;7.00;;;;;11.29;65.07;100485.41;2074975;28;46624;-59
2022/11/19 04:53:57;;;;;;;;;6.00;6.00;;;;;11.28;65.07;100481.88;2096038;28;45752;-59
2022/11/19 04:54:58;;;;;;;;;7.50;6.50;;;;;11.29;64.97;100480.09;2095772;28;46210;-62
2022/11/19 04:55:58;;;;;;;;;5.75;5.75;;;;;11.29;64.95;100488.06;2076313;28;46454;-62
2022/11/19 04:56:58;;;;;;;;;5.00;5.00;;;;;11.28;64.97;100484.53;2073160;28;46950;-61
2022/11/19 04:57:59;;;;;;;;;9.25;6.00;;;;;11.27;64.95;100492.56;2070802;28;46778;-58
2022/11/19 04:58:59;;;;;;;;;4.00;4.00;;;;;11.26;65.09;100497.00;2073091;28;46538;-60
2022/11/19 05:00:00;;;;;;;;;7.50;6.75;;;;;11.26;65.18;100490.81;2067186;28;47304;-60
2022/11/19 05:01:00;;;;;;;;;6.50;6.50;;;;;11.25;64.94;100486.41;2071187;28;46306;-61
2022/11/19 05:02:00;;;;;;;;;6.50;6.50;;;;;11.24;64.93;100490.84;2077649;28;46905;-61
2022/11/19 05:03:01;;;;;;;;;7.25;6.00;;;;;11.24;65.15;100490.84;2072831;28;46302;-60
2022/11/19 05:04:01;;;;;;;;;7.67;6.00;;;;;11.24;64.95;100492.63;2077961;28;46109;-59
2022/11/19 05:05:01;;;;;;;;;7.00;5.67;;;;;11.24;65.00;100492.63;2075464;28;46351;-60
2022/11/19 05:06:02;;;;;;;;;7.75;7.25;;;;;11.24;65.03;100496.16;2073470;28;46580;-61
2022/11/19 05:07:03;;;;;;;;;6.00;6.00;;;;;11.24;65.06;100496.16;2077705;28;46663;-62
2022/11/19 05:08:04;;;;;;;;;7.20;6.80;;;;;11.23;65.18;100493.56;2079788;28;46035;-62
2022/11/19 05:09:04;;;;;;;;;6.00;6.00;;;;;11.24;65.46;100495.31;2072370;28;46638;-59
2022/11/19 05:10:05;;;;;;;;;7.25;7.00;;;;;11.24;65.05;100493.50;2082298;28;45485;-60
2022/11/19 05:11:05;;;;;;;;;9.50;5.25;;;;;11.24;65.29;100495.31;2086767;28;46321;-59
2022/11/19 05:12:06;;;;;;;;;6.67;6.33;;;;;11.24;65.24;100498.81;2073257;28;45373;-60